createdAt,value
2019-06-20T00:00:37.385Z,16.20
2019-06-20T00:02:57.816Z,16.20
2019-06-20T00:05:18.158Z,16.20
2019-06-20T00:07:38.497Z,16.10
2019-06-20T00:09:58.847Z,16.10
2019-06-20T00:12:19.364Z,16.10
2019-06-20T00:14:39.537Z,16.10
2019-06-20T00:16:59.711Z,16.20
2019-06-20T00:19:19.942Z,16.20
2019-06-20T00:21:40.589Z,16.10
2019-06-20T00:24:00.825Z,16.10
2019-06-20T00:26:21.243Z,16.10
2019-06-20T00:28:41.474Z,16.10
2019-06-20T00:31:01.929Z,16.10
2019-06-20T00:33:22.209Z,16.00
2019-06-20T00:35:42.726Z,16.00
2019-06-20T00:38:02.982Z,16.00
2019-06-20T00:40:23.292Z,16.10
2019-06-20T00:42:43.605Z,16.10
2019-06-20T00:45:05.207Z,15.90
2019-06-20T00:47:26.130Z,15.80
2019-06-20T00:49:46.663Z,16.00
2019-06-20T00:52:06.967Z,16.00
2019-06-20T00:54:27.201Z,16.00
2019-06-20T00:56:47.400Z,15.90
2019-06-20T00:59:07.585Z,15.90
2019-06-20T01:01:27.868Z,15.90
2019-06-20T01:03:48.206Z,16.00
2019-06-20T01:06:09.563Z,16.10
2019-06-20T01:08:29.827Z,16.10
2019-06-20T01:10:50.264Z,16.00
2019-06-20T01:13:10.539Z,15.90
2019-06-20T01:15:30.864Z,15.90
2019-06-20T01:17:51.142Z,15.80
2019-06-20T01:20:11.926Z,15.90
2019-06-20T01:22:32.194Z,15.90
2019-06-20T01:24:52.473Z,15.90
2019-06-20T01:27:12.804Z,15.80
2019-06-20T01:29:33.002Z,15.80
2019-06-20T01:31:53.313Z,15.80
2019-06-20T01:34:13.522Z,15.80
2019-06-20T01:36:33.790Z,15.80
2019-06-20T01:38:54.116Z,15.70
2019-06-20T01:41:14.534Z,15.70
2019-06-20T01:43:49.402Z,15.70
2019-06-20T01:45:57.570Z,15.70
2019-06-20T01:48:18.055Z,15.80
2019-06-20T01:50:38.400Z,15.80
2019-06-20T01:52:58.641Z,16.00
2019-06-20T01:55:18.963Z,16.00
2019-06-20T01:57:39.190Z,15.90
2019-06-20T01:59:59.590Z,15.90
2019-06-20T02:02:19.960Z,16.00
2019-06-20T02:04:40.374Z,15.90
2019-06-20T02:07:00.703Z,15.90
2019-06-20T02:09:22.041Z,15.80
2019-06-20T02:11:42.339Z,15.80
2019-06-20T02:14:07.133Z,15.80
2019-06-20T02:16:24.405Z,15.80
2019-06-20T02:18:44.623Z,15.80
2019-06-20T02:21:06.748Z,15.80
2019-06-20T02:23:27.968Z,15.90
2019-06-20T02:25:52.920Z,15.70
2019-06-20T02:28:13.330Z,15.60
2019-06-20T02:30:33.617Z,15.60
2019-06-20T02:32:55.355Z,15.50
2019-06-20T02:35:15.669Z,15.50
2019-06-20T02:37:35.852Z,15.50
2019-06-20T02:39:56.129Z,15.50
2019-06-20T02:42:16.427Z,15.40
2019-06-20T02:44:36.644Z,15.50
2019-06-20T02:46:57.981Z,15.40
2019-06-20T02:49:18.356Z,15.40
2019-06-20T02:51:39.035Z,15.60
2019-06-20T02:53:59.300Z,15.60
2019-06-20T02:56:19.648Z,15.70
2019-06-20T02:58:39.815Z,15.70
2019-06-20T03:01:00.204Z,15.70
2019-06-20T03:03:20.448Z,15.50
2019-06-20T03:05:41.793Z,15.60
2019-06-20T03:08:02.119Z,15.70
2019-06-20T03:10:22.501Z,15.60
2019-06-20T03:12:42.723Z,15.50
2019-06-20T03:15:02.932Z,15.40
2019-06-20T03:17:23.296Z,15.30
2019-06-20T03:19:43.533Z,15.40
2019-06-20T03:22:03.779Z,15.40
2019-06-20T03:24:23.960Z,15.40
2019-06-20T03:26:44.357Z,15.40
2019-06-20T03:29:04.889Z,15.50
2019-06-20T03:31:25.104Z,15.50
2019-06-20T03:33:45.353Z,15.50
2019-06-20T03:36:05.741Z,15.50
2019-06-20T03:38:26.017Z,15.50
2019-06-20T03:40:47.142Z,15.30
2019-06-20T03:43:07.400Z,15.30
2019-06-20T03:45:27.724Z,15.10
2019-06-20T03:47:47.940Z,15.10
2019-06-20T03:50:08.657Z,15.00
2019-06-20T03:52:28.963Z,14.90
2019-06-20T03:54:49.144Z,15.00
2019-06-20T03:57:09.541Z,14.90
2019-06-20T03:59:29.880Z,15.00
2019-06-20T04:01:50.085Z,15.40
2019-06-20T04:04:10.342Z,15.40
2019-06-20T04:06:31.625Z,15.50
2019-06-20T04:08:51.938Z,15.50
2019-06-20T04:11:12.142Z,15.50
2019-06-20T04:13:33.332Z,15.50
2019-06-20T04:15:53.560Z,15.60
2019-06-20T04:18:13.951Z,15.70
2019-06-20T04:20:34.255Z,15.70
2019-06-20T04:22:54.414Z,15.70
2019-06-20T04:25:14.746Z,15.70
2019-06-20T04:27:35.021Z,15.60
2019-06-20T04:29:55.258Z,15.70
2019-06-20T04:32:15.566Z,15.70
2019-06-20T04:34:35.896Z,15.70
2019-06-20T04:36:56.122Z,15.80
2019-06-20T04:39:19.609Z,15.90
2019-06-20T04:41:38.235Z,16.20
2019-06-20T04:43:58.420Z,16.30
2019-06-20T04:46:23.036Z,16.40
2019-06-20T04:48:43.447Z,16.30
2019-06-20T04:51:03.762Z,16.30
2019-06-20T04:53:23.929Z,16.30
2019-06-20T04:55:44.174Z,16.30
2019-06-20T04:58:04.417Z,16.20
2019-06-20T05:00:25.145Z,16.20
2019-06-20T05:02:45.409Z,16.30
2019-06-20T05:05:06.808Z,16.40
2019-06-20T05:07:28.019Z,16.50
2019-06-20T05:09:47.996Z,16.80
2019-06-20T05:12:09.235Z,16.90
2019-06-20T05:14:29.524Z,16.80
2019-06-20T05:16:50.408Z,17.00
2019-06-20T05:19:10.656Z,17.00
2019-06-20T05:21:30.999Z,17.00
2019-06-20T05:23:51.232Z,17.10
2019-06-20T05:26:11.510Z,17.20
2019-06-20T05:28:31.755Z,17.20
2019-06-20T05:30:52.030Z,17.30
2019-06-20T05:33:12.338Z,17.40
2019-06-20T05:35:32.798Z,17.50
2019-06-20T05:37:53.126Z,17.60
2019-06-20T05:40:13.599Z,17.50
2019-06-20T05:42:40.708Z,17.80
2019-06-20T05:45:01.065Z,18.00
2019-06-20T05:47:21.306Z,18.10
2019-06-20T05:49:41.489Z,18.10
2019-06-20T05:52:01.753Z,18.30
2019-06-20T05:54:22.373Z,18.40
2019-06-20T05:56:43.818Z,18.50
2019-06-20T05:59:04.219Z,18.60
2019-06-20T06:01:24.488Z,18.60
2019-06-20T06:03:44.717Z,18.70
2019-06-20T06:06:05.114Z,18.70
2019-06-20T06:08:25.448Z,18.70
2019-06-20T06:10:47.024Z,18.80
2019-06-20T06:13:07.573Z,18.80
2019-06-20T06:15:27.859Z,19.00
2019-06-20T06:17:48.087Z,19.10
2019-06-20T06:20:09.941Z,19.20
2019-06-20T06:22:30.208Z,19.30
2019-06-20T06:24:50.651Z,19.40
2019-06-20T06:27:10.984Z,19.40
2019-06-20T06:29:31.238Z,19.60
2019-06-20T06:31:51.421Z,19.70
2019-06-20T06:34:11.721Z,19.80
2019-06-20T06:36:31.952Z,19.90
2019-06-20T06:38:52.412Z,20.00
2019-06-20T06:41:12.800Z,20.20
2019-06-20T06:43:33.046Z,20.40
2019-06-20T06:45:53.222Z,20.50
2019-06-20T06:48:13.459Z,20.70
2019-06-20T06:50:33.860Z,21.00
2019-06-20T06:52:54.114Z,21.20
2019-06-20T06:55:15.484Z,21.50
2019-06-20T06:57:36.007Z,21.60
2019-06-20T06:59:56.539Z,22.10
2019-06-20T07:02:18.050Z,22.70
2019-06-20T07:04:38.267Z,23.10
2019-06-20T07:06:58.552Z,23.20
2019-06-20T07:09:19.210Z,22.80
2019-06-20T07:11:39.407Z,22.90
2019-06-20T07:13:59.563Z,23.00
2019-06-20T07:16:19.785Z,23.20
2019-06-20T07:18:39.958Z,23.60
2019-06-20T07:21:00.318Z,23.80
2019-06-20T07:23:20.560Z,24.10
2019-06-20T07:25:40.808Z,24.50
2019-06-20T07:28:00.998Z,24.70
2019-06-20T07:30:21.493Z,24.90
2019-06-20T07:32:41.942Z,24.90
2019-06-20T07:35:02.186Z,25.00
2019-06-20T07:37:22.453Z,25.10
2019-06-20T07:39:42.771Z,25.60
2019-06-20T07:42:03.046Z,25.60
2019-06-20T07:44:23.318Z,25.90
2019-06-20T07:46:43.515Z,26.10
2019-06-20T07:49:03.775Z,26.20
2019-06-20T07:51:24.094Z,26.50
2019-06-20T07:53:44.377Z,26.70
2019-06-20T07:56:04.736Z,26.80
2019-06-20T07:58:24.983Z,26.80
2019-06-20T08:00:45.350Z,27.00
2019-06-20T08:03:05.536Z,27.20
2019-06-20T08:05:25.643Z,27.30
2019-06-20T08:07:45.592Z,27.20
2019-06-20T08:10:08.652Z,27.10
2019-06-20T08:12:28.687Z,27.50
2019-06-20T08:14:48.684Z,27.70
2019-06-20T08:17:08.662Z,27.80
2019-06-20T08:19:28.922Z,27.80
2019-06-20T08:21:49.190Z,27.80
2019-06-20T08:24:09.197Z,28.10
2019-06-20T08:26:29.234Z,28.00
2019-06-20T08:28:49.251Z,28.30
2019-06-20T08:31:09.233Z,28.60
2019-06-20T08:33:29.422Z,28.60
2019-06-20T08:35:49.388Z,28.80
2019-06-20T08:38:09.472Z,28.80
2019-06-20T08:40:31.746Z,29.10
2019-06-20T08:42:51.232Z,29.60
2019-06-20T08:45:11.368Z,29.80
2019-06-20T08:47:32.672Z,29.80
2019-06-20T08:49:52.634Z,30.20
2019-06-20T08:52:12.585Z,30.40
2019-06-20T08:54:32.858Z,30.20
2019-06-20T08:56:52.886Z,30.40
2019-06-20T08:59:23.870Z,30.80
2019-06-20T09:01:36.031Z,30.90
2019-06-20T09:06:23.585Z,30.50
2019-06-20T09:08:43.552Z,30.60
2019-06-20T09:11:04.025Z,30.30
2019-06-20T09:13:24.113Z,30.10
2019-06-20T09:15:44.249Z,30.40
2019-06-20T09:18:05.052Z,30.50
2019-06-20T09:20:25.269Z,30.40
2019-06-20T09:22:45.490Z,30.20
2019-06-20T09:25:07.031Z,30.60
2019-06-20T09:27:27.138Z,30.90
2019-06-20T09:29:47.367Z,30.50
2019-06-20T09:32:07.523Z,30.60
2019-06-20T09:34:27.547Z,30.80
2019-06-20T09:36:47.527Z,30.70
2019-06-20T09:39:07.526Z,30.80
2019-06-20T09:41:28.045Z,31.20
2019-06-20T09:43:48.306Z,31.30
2019-06-20T09:46:08.840Z,31.10
2019-06-20T09:48:29.020Z,30.80
2019-06-20T09:50:50.845Z,30.70
2019-06-20T09:53:14.028Z,31.00
2019-06-20T09:55:33.978Z,31.20
2019-06-20T09:57:53.989Z,30.60
2019-06-20T10:00:23.811Z,30.40
2019-06-20T10:02:44.056Z,30.20
2019-06-20T10:05:05.842Z,30.20
2019-06-20T10:07:26.081Z,30.80
2019-06-20T10:09:47.084Z,31.40
2019-06-20T10:12:07.820Z,31.20
2019-06-20T10:14:28.152Z,31.10
2019-06-20T10:16:50.996Z,30.70
2019-06-20T10:19:09.874Z,30.70
2019-06-20T10:21:30.126Z,30.40
2019-06-20T10:23:50.137Z,30.80
2019-06-20T10:26:10.261Z,31.20
2019-06-20T10:28:30.284Z,31.30
2019-06-20T10:30:51.137Z,31.10
2019-06-20T10:33:11.190Z,31.10
2019-06-20T10:35:32.906Z,31.40
2019-06-20T10:37:53.159Z,31.60
2019-06-20T10:40:13.438Z,31.70
2019-06-20T10:42:33.432Z,31.70
2019-06-20T10:44:53.421Z,32.20
2019-06-20T10:47:13.584Z,30.80
2019-06-20T10:49:33.725Z,30.60
2019-06-20T10:51:53.634Z,31.20
2019-06-20T10:54:13.713Z,31.80
2019-06-20T10:56:33.755Z,31.60
2019-06-20T10:58:54.119Z,31.40
2019-06-20T11:01:14.599Z,31.30
2019-06-20T11:03:34.640Z,31.60
2019-06-20T11:05:54.602Z,31.70
2019-06-20T11:08:14.497Z,32.10
2019-06-20T11:10:34.995Z,32.30
2019-06-20T11:12:56.354Z,32.10
2019-06-20T11:15:20.141Z,31.80
2019-06-20T11:17:40.402Z,31.30
2019-06-20T11:20:00.757Z,31.50
2019-06-20T11:22:20.659Z,31.20
2019-06-20T11:24:43.005Z,31.60
2019-06-20T11:27:03.769Z,31.50
2019-06-20T11:29:23.808Z,31.70
2019-06-20T11:31:47.581Z,31.20
2019-06-20T11:34:06.265Z,31.40
2019-06-20T11:36:26.328Z,31.20
2019-06-20T11:38:46.883Z,30.70
2019-06-20T11:41:06.933Z,30.30
2019-06-20T11:43:26.832Z,29.90
2019-06-20T11:45:47.276Z,29.60
2019-06-20T11:48:07.747Z,29.50
2019-06-20T11:50:28.072Z,29.50
2019-06-20T11:52:48.468Z,29.60
2019-06-20T11:55:09.158Z,30.00
2019-06-20T11:57:29.500Z,30.30
2019-06-20T11:59:49.789Z,30.90
2019-06-20T12:02:10.091Z,31.20
2019-06-20T12:04:30.342Z,31.50
2019-06-20T12:06:50.633Z,31.60
2019-06-20T12:09:10.766Z,32.50
2019-06-20T12:11:30.746Z,32.50
2019-06-20T12:13:50.829Z,32.90
2019-06-20T12:16:10.727Z,32.60
2019-06-20T12:18:30.630Z,31.70
2019-06-20T12:20:50.578Z,31.30
2019-06-20T12:23:10.934Z,30.70
2019-06-20T12:25:31.071Z,30.40
2019-06-20T12:27:51.136Z,30.10
2019-06-20T12:30:13.539Z,29.90
2019-06-20T12:32:33.922Z,29.90
2019-06-20T12:34:53.861Z,29.80
2019-06-20T12:37:13.846Z,29.70
2019-06-20T12:39:34.192Z,29.80
2019-06-20T12:41:54.231Z,29.70
2019-06-20T12:44:14.258Z,29.70
2019-06-20T12:46:34.342Z,29.70
2019-06-20T12:48:54.245Z,29.80
2019-06-20T12:51:14.503Z,29.90
2019-06-20T12:53:34.674Z,30.00
2019-06-20T12:55:54.640Z,30.20
2019-06-20T12:58:14.604Z,30.60
2019-06-20T13:00:34.905Z,30.50
2019-06-20T13:02:54.958Z,30.30
2019-06-20T13:05:17.136Z,29.90
2019-06-20T13:07:38.791Z,29.90
2019-06-20T13:09:59.238Z,29.90
2019-06-20T13:12:19.417Z,29.80
2019-06-20T13:14:40.842Z,29.70
2019-06-20T13:17:01.225Z,29.50
2019-06-20T13:19:21.466Z,29.20
2019-06-20T13:21:42.061Z,29.10
2019-06-20T13:24:02.080Z,29.10
2019-06-20T13:26:22.113Z,29.10
2019-06-20T13:28:58.828Z,29.00
2019-06-20T13:31:04.084Z,29.00
2019-06-20T13:33:24.289Z,28.80
2019-06-20T13:35:45.376Z,28.70
2019-06-20T13:38:05.408Z,28.70
2019-06-20T13:40:25.529Z,28.70
2019-06-20T13:42:46.089Z,28.70
2019-06-20T13:45:13.210Z,28.10
2019-06-20T13:47:30.928Z,27.70
2019-06-20T13:49:50.903Z,27.50
2019-06-20T13:52:11.140Z,27.30
2019-06-20T13:54:37.146Z,27.10
2019-06-20T13:56:57.452Z,27.00
2019-06-20T13:59:20.903Z,26.80
2019-06-20T14:01:42.083Z,26.50
2019-06-20T14:04:02.915Z,26.40
2019-06-20T14:06:23.152Z,26.30
2019-06-20T14:08:44.801Z,26.30
2019-06-20T14:11:05.865Z,26.60
2019-06-20T14:13:25.984Z,26.80
2019-06-20T14:15:46.190Z,26.90
2019-06-20T14:18:06.324Z,26.50
2019-06-20T14:20:26.367Z,26.20
2019-06-20T14:22:49.411Z,26.30
2019-06-20T14:25:10.615Z,26.10
2019-06-20T14:27:35.087Z,25.90
2019-06-20T14:29:55.230Z,25.70
2019-06-20T14:32:22.174Z,25.40
2019-06-20T14:34:37.184Z,25.20
2019-06-20T14:36:57.171Z,25.00
2019-06-20T14:39:19.905Z,24.90
2019-06-20T14:41:40.360Z,23.30
2019-06-20T14:44:00.611Z,21.80
2019-06-20T14:46:20.856Z,21.20
2019-06-20T14:48:44.918Z,21.00
2019-06-20T14:51:05.941Z,21.00
2019-06-20T14:53:26.178Z,20.80
2019-06-20T14:55:47.662Z,20.80
2019-06-20T14:58:08.981Z,20.80
2019-06-20T15:00:29.000Z,21.00
2019-06-20T15:02:52.986Z,21.00
2019-06-20T15:05:18.933Z,20.80
2019-06-20T15:07:39.300Z,20.80
2019-06-20T15:09:59.566Z,20.70
2019-06-20T15:12:19.875Z,20.90
2019-06-20T15:14:40.147Z,20.90
2019-06-20T15:17:00.478Z,21.00
2019-06-20T15:19:20.770Z,20.90
2019-06-20T15:21:41.013Z,20.80
2019-06-20T15:24:02.342Z,21.00
2019-06-20T15:26:22.632Z,21.10
2019-06-20T15:28:42.929Z,21.00
2019-06-20T15:31:03.167Z,21.00
2019-06-20T15:33:23.569Z,21.00
2019-06-20T15:35:43.939Z,20.80
2019-06-20T15:38:04.358Z,20.70
2019-06-20T15:40:24.581Z,20.50
2019-06-20T15:42:44.832Z,20.50
2019-06-20T15:45:09.905Z,20.40
2019-06-20T15:47:30.817Z,20.30
2019-06-20T15:49:51.225Z,20.20
2019-06-20T15:52:11.428Z,20.10
2019-06-20T15:54:31.726Z,20.10
2019-06-20T15:56:52.030Z,20.10
2019-06-20T15:59:12.277Z,20.00
2019-06-20T16:01:32.729Z,20.00
2019-06-20T16:03:52.984Z,20.20
2019-06-20T16:06:13.321Z,20.20
2019-06-20T16:08:35.166Z,20.20
2019-06-20T16:10:57.959Z,20.10
2019-06-20T16:13:18.226Z,19.90
2019-06-20T16:15:38.196Z,20.00
2019-06-20T16:17:58.202Z,20.00
2019-06-20T16:20:19.508Z,20.00
2019-06-20T16:22:40.341Z,20.20
2019-06-20T16:25:00.751Z,20.20
2019-06-20T16:27:21.597Z,20.20
2019-06-20T16:29:41.829Z,20.20
2019-06-20T16:32:01.961Z,20.30
2019-06-20T16:34:21.924Z,20.30
2019-06-20T16:36:41.916Z,20.30
2019-06-20T16:39:01.982Z,20.40
2019-06-20T16:41:23.503Z,20.50
2019-06-20T16:43:43.490Z,20.50
2019-06-20T16:46:03.477Z,20.60
2019-06-20T16:48:23.712Z,20.60
2019-06-20T16:50:43.712Z,20.70
2019-06-20T16:53:04.444Z,20.60
2019-06-20T16:55:24.673Z,20.60
2019-06-20T16:57:44.850Z,20.60
2019-06-20T17:00:09.518Z,20.50
2019-06-20T17:02:32.669Z,20.50
2019-06-20T17:04:51.845Z,20.50
2019-06-20T17:07:11.592Z,20.50
2019-06-20T17:09:31.561Z,20.50
2019-06-20T17:11:51.835Z,20.40
2019-06-20T17:14:12.090Z,20.40
2019-06-20T17:16:32.392Z,20.40
2019-06-20T17:18:52.731Z,20.40
2019-06-20T17:21:13.212Z,20.40
2019-06-20T17:23:33.681Z,20.40
2019-06-20T17:25:53.979Z,20.50
2019-06-20T17:28:14.323Z,20.50
2019-06-20T17:30:37.123Z,20.50
2019-06-20T17:32:57.494Z,20.60
2019-06-20T17:35:17.951Z,20.50
2019-06-20T17:37:38.087Z,20.50
2019-06-20T17:39:59.366Z,20.50
2019-06-20T17:42:19.567Z,20.60
2019-06-20T17:44:39.806Z,20.60
2019-06-20T17:47:01.052Z,20.60
2019-06-20T17:49:21.531Z,20.60
2019-06-20T17:51:41.881Z,20.60
2019-06-20T17:54:02.192Z,20.50
2019-06-20T17:56:22.478Z,20.50
2019-06-20T17:58:44.360Z,20.40
2019-06-20T18:01:04.828Z,20.40
2019-06-20T18:03:25.139Z,20.50
2019-06-20T18:05:45.456Z,20.50
2019-06-20T18:08:14.480Z,20.50
2019-06-20T18:10:27.835Z,20.50
2019-06-20T18:12:48.242Z,20.40
2019-06-20T18:15:09.240Z,20.30
2019-06-20T18:17:29.440Z,20.30
2019-06-20T18:19:49.709Z,20.20
2019-06-20T18:22:10.362Z,20.20
2019-06-20T18:24:30.607Z,20.20
2019-06-20T18:26:50.808Z,20.20
2019-06-20T18:29:11.072Z,20.00
2019-06-20T18:31:31.338Z,20.10
2019-06-20T18:33:51.635Z,20.00
2019-06-20T18:36:11.969Z,19.90
2019-06-20T18:38:32.197Z,19.90
2019-06-20T18:40:52.652Z,19.90
2019-06-20T18:43:12.967Z,19.80
2019-06-20T18:45:33.415Z,19.90
2019-06-20T18:47:53.820Z,19.90
2019-06-20T18:50:15.051Z,19.90
2019-06-20T18:52:50.903Z,19.80
2019-06-20T18:54:59.492Z,19.80
2019-06-20T18:57:19.836Z,19.80
2019-06-20T18:59:40.274Z,19.70
2019-06-20T19:02:01.124Z,19.70
2019-06-20T19:04:21.320Z,19.70
2019-06-20T19:06:41.588Z,19.70
2019-06-20T19:09:01.848Z,19.70
2019-06-20T19:11:24.524Z,19.60
2019-06-20T19:13:45.206Z,19.60
2019-06-20T19:16:06.967Z,19.60
2019-06-20T19:18:27.419Z,19.50
2019-06-20T19:20:47.782Z,19.40
2019-06-20T19:23:08.105Z,19.40
2019-06-20T19:25:28.370Z,19.40
2019-06-20T19:27:49.093Z,19.50
2019-06-20T19:30:11.591Z,19.40
2019-06-20T19:32:31.823Z,19.40
2019-06-20T19:35:02.290Z,19.40
2019-06-20T19:37:16.306Z,19.40
2019-06-20T19:39:37.952Z,19.30
2019-06-20T19:42:01.471Z,19.30
2019-06-20T19:44:27.089Z,19.20
2019-06-20T19:46:47.858Z,19.20
2019-06-20T19:49:15.074Z,19.30
2019-06-20T19:51:36.146Z,19.20
2019-06-20T19:53:57.316Z,19.20
2019-06-20T19:56:21.207Z,19.20
2019-06-20T19:58:43.905Z,19.40
2019-06-20T20:01:06.659Z,19.40
2019-06-20T20:03:32.431Z,19.40
2019-06-20T20:05:53.825Z,19.40
2019-06-20T20:08:15.087Z,19.30
2019-06-20T20:10:48.926Z,19.30
2019-06-20T20:13:15.074Z,19.40
2019-06-20T20:15:34.421Z,19.40
2019-06-20T20:17:57.870Z,19.40
2019-06-20T20:20:33.647Z,19.40
2019-06-20T20:22:52.471Z,19.40
2019-06-20T20:25:41.144Z,19.50
2019-06-20T20:28:03.253Z,19.70
2019-06-20T20:30:23.654Z,19.70
2019-06-20T20:32:43.618Z,19.70
2019-06-20T20:35:04.316Z,19.60
2019-06-20T20:37:24.221Z,19.50
2019-06-20T20:39:44.273Z,19.50
2019-06-20T20:42:04.888Z,19.50
2019-06-20T20:44:25.207Z,19.50
2019-06-20T20:46:45.465Z,19.40
2019-06-20T20:49:06.124Z,19.50
2019-06-20T20:51:26.597Z,19.50
2019-06-20T20:53:46.798Z,19.60
2019-06-20T20:56:07.066Z,19.70
2019-06-20T20:58:27.335Z,19.60
2019-06-20T21:01:11.784Z,19.50
2019-06-20T21:03:32.255Z,19.60
2019-06-20T21:05:52.668Z,19.60
2019-06-20T21:08:12.988Z,19.60
2019-06-20T21:10:33.336Z,19.90
2019-06-20T21:12:53.636Z,20.10
2019-06-20T21:15:15.739Z,20.00
2019-06-20T21:17:36.366Z,20.10
2019-06-20T21:19:56.338Z,20.30
2019-06-20T21:22:16.289Z,20.10
2019-06-20T21:24:36.623Z,20.10
2019-06-20T21:26:56.799Z,20.10
2019-06-20T21:29:17.148Z,20.00
2019-06-20T21:31:37.425Z,20.00
2019-06-20T21:33:57.656Z,20.10
2019-06-20T21:36:17.907Z,19.90
2019-06-20T21:38:38.187Z,20.00
2019-06-20T21:40:59.495Z,20.10
2019-06-20T21:43:19.821Z,20.00
2019-06-20T21:45:40.246Z,20.00
2019-06-20T21:48:00.562Z,19.80
2019-06-20T21:50:20.972Z,19.50
2019-06-20T21:52:43.721Z,19.30
2019-06-20T21:55:06.478Z,19.00
2019-06-20T21:57:27.443Z,18.90
2019-06-20T21:59:47.690Z,18.90
2019-06-20T22:02:08.419Z,18.90
2019-06-20T22:04:28.699Z,18.80
2019-06-20T22:06:48.951Z,18.80
2019-06-20T22:09:16.502Z,18.70
2019-06-20T22:11:37.123Z,18.80
2019-06-20T22:13:58.643Z,18.90
2019-06-20T22:16:19.235Z,18.70
2019-06-20T22:18:39.584Z,18.70
2019-06-20T22:20:59.900Z,18.60
2019-06-20T22:23:20.276Z,18.60
2019-06-20T22:25:40.618Z,18.70
2019-06-20T22:28:00.952Z,18.70
2019-06-20T22:30:40.765Z,18.70
2019-06-20T22:33:01.084Z,18.70
2019-06-20T22:35:21.269Z,18.60
2019-06-20T22:37:41.765Z,18.50
2019-06-20T22:40:02.069Z,18.50
2019-06-20T22:42:22.393Z,18.50
2019-06-20T22:44:42.638Z,18.60
2019-06-20T22:47:02.908Z,18.70
2019-06-20T22:49:23.150Z,18.70
2019-06-20T22:51:43.628Z,18.60
2019-06-20T22:54:04.000Z,18.60
2019-06-20T22:56:24.247Z,18.60
2019-06-20T22:58:44.470Z,18.40
2019-06-20T23:01:06.362Z,18.30
2019-06-20T23:03:26.557Z,18.20
2019-06-20T23:05:46.745Z,18.20
2019-06-20T23:08:07.826Z,18.10
2019-06-20T23:10:28.083Z,18.10
2019-06-20T23:12:48.470Z,18.00
2019-06-20T23:15:09.287Z,18.00
2019-06-20T23:17:29.580Z,17.90
2019-06-20T23:19:49.942Z,17.80
2019-06-20T23:22:10.409Z,17.90
2019-06-20T23:24:30.642Z,17.80
2019-06-20T23:26:52.611Z,17.80
2019-06-20T23:29:24.626Z,17.80
2019-06-20T23:31:44.512Z,17.80
2019-06-20T23:34:04.847Z,17.80
2019-06-20T23:36:25.017Z,17.70
2019-06-20T23:38:45.266Z,17.70
2019-06-20T23:41:05.574Z,17.70
2019-06-20T23:43:25.767Z,17.70
2019-06-20T23:45:45.921Z,17.60
2019-06-20T23:48:06.192Z,17.50
2019-06-20T23:50:29.163Z,17.40
2019-06-20T23:52:57.054Z,17.30
2019-06-20T23:55:17.465Z,17.30
2019-06-20T23:57:38.675Z,17.30
2019-06-20T23:59:58.855Z,17.20
